Terminal Aerodrome Forecast
Issued by NWS

Home | Current Version | Previous Version | Text Only | Print | Product List | Glossary On
Versions: 1 2 3 4 5 6 7 8 9 10 11 12 13 14 15 16 17 18 19 20 21 22
842
FTUS43 KDLH 141159
TAFHIB
TAF
KHIB 141159Z 1412/1512 14005KT P6SM SCT050 OVC090
     FM141700 16010KT P6SM BKN025 OVC050
     FM141900 16010KT 4SM -SN BKN015 OVC030
     FM142100 16012KT 2SM -SN OVC008
     FM150400 18008KT 3SM -SN OVC012
     FM150900 19005KT 6SM -SN OVC015=

USA.gov is the U.S. government's official web portal to all federal, state and local government web resources and services.